createdAt,value
2022-08-28T00:00:04.203Z,23.56
2022-08-28T00:02:31.455Z,23.69
2022-08-28T00:04:58.162Z,23.57
2022-08-28T00:07:25.420Z,23.33
2022-08-28T00:09:51.952Z,23.21
2022-08-28T00:12:18.580Z,23.03
2022-08-28T00:14:45.244Z,22.96
2022-08-28T00:17:11.823Z,23.07
2022-08-28T00:19:38.895Z,23.10
2022-08-28T00:22:07.388Z,23.06
2022-08-28T00:24:34.652Z,23.10
2022-08-28T00:27:19.832Z,23.05
2022-08-28T00:29:46.343Z,23.07
2022-08-28T00:32:13.803Z,23.02
2022-08-28T00:34:40.379Z,23.35
2022-08-28T00:37:07.007Z,23.40
2022-08-28T00:39:33.563Z,23.58
2022-08-28T00:42:00.317Z,23.18
2022-08-28T00:44:28.834Z,23.00
2022-08-28T00:46:57.678Z,22.81
2022-08-28T00:49:28.020Z,22.74
2022-08-28T00:52:12.025Z,22.63
2022-08-28T00:54:59.600Z,22.55
2022-08-28T00:57:29.567Z,22.59
2022-08-28T00:59:56.155Z,22.66
2022-08-28T01:02:22.930Z,22.74
2022-08-28T01:04:50.843Z,22.75
2022-08-28T01:07:18.035Z,22.72
2022-08-28T01:09:48.853Z,22.73
2022-08-28T01:12:19.836Z,22.69
2022-08-28T01:14:49.210Z,22.73
2022-08-28T01:17:18.454Z,22.88
2022-08-28T01:19:57.341Z,23.15
2022-08-28T01:23:02.759Z,22.97
2022-08-28T01:25:33.762Z,22.87
2022-08-28T01:28:01.832Z,22.85
2022-08-28T01:30:31.839Z,24.29
2022-08-28T01:32:58.457Z,24.98
2022-08-28T01:35:29.020Z,25.28
2022-08-28T01:37:56.348Z,23.96
2022-08-28T01:40:36.202Z,23.31
2022-08-28T01:43:12.555Z,23.08
2022-08-28T01:45:41.850Z,22.72
2022-08-28T01:48:08.967Z,22.51
2022-08-28T01:50:36.068Z,22.41
2022-08-28T01:53:05.195Z,22.46
2022-08-28T01:55:35.768Z,22.46
2022-08-28T01:58:07.201Z,22.55
2022-08-28T02:00:33.933Z,22.63
2022-08-28T02:03:01.211Z,22.67
2022-08-28T02:05:31.131Z,22.87
2022-08-28T02:07:58.914Z,22.81
2022-08-28T02:10:27.855Z,22.69
2022-08-28T02:12:55.954Z,22.67
2022-08-28T02:15:27.564Z,22.68
2022-08-28T02:17:54.276Z,22.57
2022-08-28T02:20:21.206Z,22.57
2022-08-28T02:22:48.174Z,22.57
2022-08-28T02:25:15.105Z,22.37
2022-08-28T02:27:41.770Z,22.44
2022-08-28T02:30:11.685Z,22.42
2022-08-28T02:32:38.546Z,22.46
2022-08-28T02:35:12.056Z,22.42
2022-08-28T02:37:39.724Z,22.40
2022-08-28T02:40:07.016Z,22.28
2022-08-28T02:42:33.562Z,22.33
2022-08-28T02:45:00.931Z,22.43
2022-08-28T02:47:27.538Z,22.44
2022-08-28T02:49:54.049Z,22.43
2022-08-28T02:52:21.858Z,22.32
2022-08-28T02:54:48.539Z,22.28
2022-08-28T02:57:15.260Z,22.26
2022-08-28T02:59:43.396Z,22.21
2022-08-28T03:02:10.428Z,22.28
2022-08-28T03:04:38.154Z,22.25
2022-08-28T03:07:11.768Z,22.16
2022-08-28T03:09:38.353Z,22.17
2022-08-28T03:12:05.048Z,22.29
2022-08-28T03:14:31.554Z,22.24
2022-08-28T03:16:58.168Z,22.25
2022-08-28T03:19:24.703Z,22.23
2022-08-28T03:21:52.587Z,22.17
2022-08-28T03:24:19.695Z,22.12
2022-08-28T03:26:46.474Z,22.16
2022-08-28T03:29:13.181Z,22.22
2022-08-28T03:31:39.687Z,22.18
2022-08-28T03:34:06.810Z,22.33
2022-08-28T03:36:33.834Z,22.36
2022-08-28T03:39:03.088Z,22.33
2022-08-28T03:41:31.154Z,22.19
2022-08-28T03:43:59.970Z,22.15
2022-08-28T03:46:28.325Z,22.10
2022-08-28T03:48:55.563Z,22.26
2022-08-28T03:51:25.493Z,22.41
2022-08-28T03:53:59.772Z,22.57
2022-08-28T03:56:28.723Z,22.83
2022-08-28T03:58:57.571Z,22.99
2022-08-28T04:01:24.361Z,23.17
2022-08-28T04:03:51.486Z,23.40
2022-08-28T04:06:19.813Z,23.07
2022-08-28T04:08:47.206Z,23.23
2022-08-28T04:11:13.787Z,22.81
2022-08-28T04:13:41.719Z,23.06
2022-08-28T04:16:10.900Z,23.53
2022-08-28T04:18:41.973Z,23.22
2022-08-28T04:21:12.175Z,22.90
2022-08-28T04:23:40.289Z,22.42
2022-08-28T04:26:08.068Z,22.09
2022-08-28T04:28:35.530Z,22.14
2022-08-28T04:31:02.789Z,22.13
2022-08-28T04:33:30.523Z,22.56
2022-08-28T04:35:57.388Z,22.32
2022-08-28T04:38:23.929Z,22.35
2022-08-28T04:40:50.714Z,22.12
2022-08-28T04:43:17.391Z,22.10
2022-08-28T04:45:45.318Z,22.10
2022-08-28T04:48:13.827Z,22.00
2022-08-28T04:50:46.049Z,21.96
2022-08-28T04:53:13.988Z,22.03
2022-08-28T04:55:54.629Z,22.03
2022-08-28T04:58:24.053Z,22.11
2022-08-28T05:00:52.246Z,22.14
2022-08-28T05:03:18.901Z,22.19
2022-08-28T05:05:48.191Z,22.09
2022-08-28T05:08:16.942Z,22.06
2022-08-28T05:10:43.693Z,22.12
2022-08-28T05:13:11.877Z,22.19
2022-08-28T05:15:44.484Z,22.22
2022-08-28T05:18:12.186Z,22.16
2022-08-28T05:20:40.159Z,22.03
2022-08-28T05:23:09.234Z,22.09
2022-08-28T05:25:41.949Z,22.88
2022-08-28T05:28:11.996Z,22.64
2022-08-28T05:30:40.331Z,22.94
2022-08-28T05:33:08.146Z,23.05
2022-08-28T05:35:38.303Z,23.09
2022-08-28T05:38:06.428Z,23.16
2022-08-28T05:40:34.228Z,22.81
2022-08-28T05:43:00.816Z,23.76
2022-08-28T05:45:27.358Z,24.10
2022-08-28T05:47:54.023Z,23.51
2022-08-28T05:50:20.514Z,22.95
2022-08-28T05:52:47.469Z,23.25
2022-08-28T05:55:14.329Z,24.12
2022-08-28T05:57:41.647Z,24.67
2022-08-28T06:00:13.601Z,23.94
2022-08-28T06:02:42.073Z,23.44
2022-08-28T06:05:12.981Z,23.28
2022-08-28T06:07:40.947Z,23.60
2022-08-28T06:10:08.256Z,24.02
2022-08-28T06:12:37.507Z,23.85
2022-08-28T06:15:04.426Z,24.19
2022-08-28T06:17:31.110Z,23.32
2022-08-28T06:19:57.681Z,23.05
2022-08-28T06:22:24.266Z,23.87
2022-08-28T06:24:50.803Z,24.20
2022-08-28T06:27:17.550Z,24.46
2022-08-28T06:29:44.719Z,24.62
2022-08-28T06:32:11.432Z,24.86
2022-08-28T06:34:38.043Z,24.62
2022-08-28T06:37:04.919Z,25.11
2022-08-28T06:39:31.480Z,24.50
2022-08-28T06:41:58.059Z,24.68
2022-08-28T06:44:24.667Z,25.17
2022-08-28T06:46:53.255Z,25.15
2022-08-28T06:49:20.063Z,24.82
2022-08-28T06:51:46.723Z,25.58
2022-08-28T06:54:17.292Z,25.98
2022-08-28T06:56:47.880Z,25.64
2022-08-28T06:59:14.721Z,25.78
2022-08-28T07:01:41.393Z,25.62
2022-08-28T07:04:11.241Z,26.32
2022-08-28T07:06:40.924Z,26.63
2022-08-28T07:09:11.088Z,26.72
2022-08-28T07:11:38.301Z,26.61
2022-08-28T07:14:05.608Z,26.19
2022-08-28T07:16:38.129Z,26.77
2022-08-28T07:19:06.686Z,27.29
2022-08-28T07:21:39.112Z,26.88
2022-08-28T07:24:07.215Z,27.59
2022-08-28T07:26:35.573Z,27.20
2022-08-28T07:29:10.598Z,27.68
2022-08-28T07:31:41.322Z,28.08
2022-08-28T07:34:08.716Z,28.21
2022-08-28T07:36:35.897Z,28.39
2022-08-28T07:39:02.471Z,28.29
2022-08-28T07:41:31.369Z,28.33
2022-08-28T07:44:16.811Z,28.23
2022-08-28T07:46:44.486Z,28.67
2022-08-28T07:49:11.998Z,28.69
2022-08-28T07:51:38.979Z,28.75
2022-08-28T07:54:05.806Z,28.77
2022-08-28T07:56:33.126Z,28.57
2022-08-28T07:59:01.604Z,28.56
2022-08-28T08:01:30.766Z,28.91
2022-08-28T08:04:01.451Z,29.06
2022-08-28T08:06:34.056Z,29.10
2022-08-28T08:09:01.761Z,28.89
2022-08-28T08:11:28.318Z,29.03
2022-08-28T08:14:03.853Z,29.15
2022-08-28T08:16:38.730Z,29.25
2022-08-28T08:19:05.911Z,29.27
2022-08-28T08:21:32.736Z,29.11
2022-08-28T08:23:59.302Z,29.30
2022-08-28T08:26:30.147Z,29.05
2022-08-28T08:28:57.721Z,28.95
2022-08-28T08:31:24.621Z,29.26
2022-08-28T08:33:54.784Z,29.22
2022-08-28T08:36:23.876Z,29.42
2022-08-28T08:38:59.396Z,29.35
2022-08-28T08:41:30.272Z,29.37
2022-08-28T08:44:07.527Z,29.58
2022-08-28T08:47:15.472Z,29.60
2022-08-28T08:49:47.518Z,29.59
2022-08-28T08:52:36.230Z,29.18
2022-08-28T08:55:35.517Z,28.93
2022-08-28T08:58:13.060Z,29.07
2022-08-28T09:00:55.675Z,28.75
2022-08-28T09:04:09.402Z,28.60
2022-08-28T09:06:56.679Z,28.61
2022-08-28T09:09:34.115Z,28.45
2022-08-28T09:12:03.720Z,28.53
2022-08-28T09:15:07.618Z,28.28
2022-08-28T09:17:49.406Z,28.68
2022-08-28T09:20:32.288Z,29.01
2022-08-28T09:23:00.549Z,29.10
2022-08-28T09:25:51.458Z,29.59
2022-08-28T09:28:23.257Z,29.49
2022-08-28T09:30:54.682Z,29.57
2022-08-28T09:33:34.341Z,29.68
2022-08-28T09:36:38.443Z,29.81
2022-08-28T09:39:06.723Z,29.90
2022-08-28T09:41:56.159Z,30.06
2022-08-28T09:44:22.895Z,30.14
2022-08-28T09:46:51.638Z,30.09
2022-08-28T09:49:25.967Z,30.18
2022-08-28T09:51:52.832Z,30.11
2022-08-28T09:54:25.634Z,29.81
2022-08-28T09:56:52.856Z,30.32
2022-08-28T09:59:22.994Z,30.09
2022-08-28T10:02:20.403Z,30.00
2022-08-28T10:05:32.981Z,30.07
2022-08-28T10:08:07.948Z,30.11
2022-08-28T10:10:52.795Z,30.11
2022-08-28T10:14:08.900Z,30.12
2022-08-28T10:16:51.357Z,29.77
2022-08-28T10:19:23.781Z,29.94
2022-08-28T10:22:45.513Z,29.74
2022-08-28T10:25:20.764Z,29.92
2022-08-28T10:28:06.247Z,30.14
2022-08-28T10:30:38.982Z,29.62
2022-08-28T10:33:29.715Z,29.83
2022-08-28T10:36:03.483Z,30.12
2022-08-28T10:38:41.876Z,30.27
2022-08-28T10:41:24.140Z,30.43
2022-08-28T10:43:53.611Z,30.19
2022-08-28T10:46:27.164Z,30.24
2022-08-28T10:49:06.594Z,30.23
2022-08-28T10:51:35.206Z,29.84
2022-08-28T10:54:13.456Z,29.97
2022-08-28T10:56:56.188Z,29.92
2022-08-28T10:59:25.485Z,29.85
2022-08-28T11:01:52.542Z,30.06
2022-08-28T11:04:25.468Z,30.17
2022-08-28T11:07:09.332Z,30.33
2022-08-28T11:09:37.349Z,30.22
2022-08-28T11:12:10.180Z,30.34
2022-08-28T11:14:47.082Z,30.35
2022-08-28T11:17:33.525Z,29.91
2022-08-28T11:20:15.688Z,30.05
2022-08-28T11:23:00.530Z,30.13
2022-08-28T11:25:45.409Z,30.24
2022-08-28T11:28:25.660Z,30.29
2022-08-28T11:31:01.023Z,30.03
2022-08-28T11:33:33.335Z,29.79
2022-08-28T11:35:59.892Z,29.98
2022-08-28T11:38:41.456Z,29.95
2022-08-28T11:41:39.091Z,30.05
2022-08-28T11:44:09.022Z,30.09
2022-08-28T11:46:39.642Z,29.96
2022-08-28T11:49:26.491Z,30.13
2022-08-28T11:52:23.229Z,29.92
2022-08-28T11:55:02.029Z,29.99
2022-08-28T11:57:45.546Z,30.14
2022-08-28T12:00:46.287Z,30.00
2022-08-28T12:03:33.760Z,29.84
2022-08-28T12:06:01.328Z,30.24
2022-08-28T12:08:57.122Z,30.13
2022-08-28T12:11:42.117Z,29.93
2022-08-28T12:14:11.418Z,29.97
2022-08-28T12:16:59.691Z,30.02
2022-08-28T12:19:33.303Z,30.26
2022-08-28T12:22:05.917Z,30.01
2022-08-28T12:24:35.439Z,29.92
2022-08-28T12:27:03.477Z,30.03
2022-08-28T12:29:38.565Z,29.88
2022-08-28T12:32:45.846Z,30.02
2022-08-28T12:35:20.575Z,30.25
2022-08-28T12:38:01.492Z,30.02
2022-08-28T12:40:50.407Z,30.09
2022-08-28T12:43:41.676Z,30.14
2022-08-28T12:46:20.783Z,29.95
2022-08-28T12:49:01.257Z,30.07
2022-08-28T12:51:37.151Z,30.02
2022-08-28T12:54:08.644Z,29.91
2022-08-28T12:56:38.416Z,29.84
2022-08-28T12:59:36.386Z,29.79
2022-08-28T13:02:07.232Z,29.66
2022-08-28T13:04:38.540Z,29.53
2022-08-28T13:07:13.318Z,29.61
2022-08-28T13:09:48.539Z,29.65
2022-08-28T13:12:54.798Z,29.60
2022-08-28T13:16:01.392Z,29.50
2022-08-28T13:19:09.597Z,29.65
2022-08-28T13:21:48.428Z,29.69
2022-08-28T13:24:24.001Z,29.85
2022-08-28T13:27:01.436Z,29.99
2022-08-28T13:29:28.415Z,29.86
2022-08-28T13:32:05.588Z,29.59
2022-08-28T13:34:46.136Z,29.58
2022-08-28T13:37:40.635Z,29.72
2022-08-28T13:40:19.748Z,29.87
2022-08-28T13:42:56.040Z,29.68
2022-08-28T13:45:22.418Z,29.56
2022-08-28T13:47:48.991Z,29.57
2022-08-28T13:50:15.624Z,29.59
2022-08-28T13:52:42.192Z,29.50
2022-08-28T13:55:09.800Z,29.56
2022-08-28T13:57:37.304Z,29.58
2022-08-28T14:00:05.288Z,29.55
2022-08-28T14:02:51.635Z,29.54
2022-08-28T14:05:18.297Z,29.65
2022-08-28T14:07:45.084Z,29.59
2022-08-28T14:10:11.742Z,29.76
2022-08-28T14:12:38.320Z,29.57
2022-08-28T14:15:05.524Z,29.45
2022-08-28T14:17:32.054Z,29.51
2022-08-28T14:20:00.294Z,29.64
2022-08-28T14:22:27.420Z,29.64
2022-08-28T14:24:54.023Z,29.49
2022-08-28T14:27:20.568Z,29.83
2022-08-28T14:29:47.158Z,29.45
2022-08-28T14:32:13.747Z,29.46
2022-08-28T14:34:41.239Z,29.61
2022-08-28T14:37:07.849Z,29.22
2022-08-28T14:39:34.428Z,29.58
2022-08-28T14:42:02.397Z,29.16
2022-08-28T14:44:28.972Z,29.08
2022-08-28T14:46:56.940Z,29.60
2022-08-28T14:49:25.530Z,29.31
2022-08-28T14:51:52.827Z,29.11
2022-08-28T14:54:21.487Z,29.41
2022-08-28T14:56:49.668Z,29.19
2022-08-28T14:59:23.812Z,29.50
2022-08-28T15:01:52.445Z,29.37
2022-08-28T15:04:24.893Z,29.31
2022-08-28T15:06:57.091Z,29.28
2022-08-28T15:09:23.931Z,29.08
2022-08-28T15:11:50.675Z,29.04
2022-08-28T15:14:17.661Z,28.95
2022-08-28T15:16:46.687Z,29.01
2022-08-28T15:19:16.054Z,28.99
2022-08-28T15:21:49.468Z,28.72
2022-08-28T15:24:18.310Z,28.84
2022-08-28T15:26:45.000Z,28.66
2022-08-28T15:29:12.057Z,28.42
2022-08-28T15:31:43.010Z,28.51
2022-08-28T15:34:13.496Z,28.41
2022-08-28T15:36:41.518Z,28.36
2022-08-28T15:39:27.850Z,28.40
2022-08-28T15:41:55.334Z,28.73
2022-08-28T15:44:22.050Z,28.99
2022-08-28T15:46:54.573Z,28.72
2022-08-28T15:49:24.167Z,28.73
2022-08-28T15:51:51.213Z,28.70
2022-08-28T15:54:18.012Z,28.69
2022-08-28T15:56:44.704Z,28.70
2022-08-28T15:59:12.351Z,28.72
2022-08-28T16:01:39.005Z,28.76
2022-08-28T16:04:07.271Z,28.57
2022-08-28T16:06:34.806Z,28.82
2022-08-28T16:09:01.620Z,28.68
2022-08-28T16:11:28.655Z,28.76
2022-08-28T16:14:00.547Z,28.39
2022-08-28T16:16:27.473Z,28.74
2022-08-28T16:18:55.201Z,28.60
2022-08-28T16:21:22.683Z,28.39
2022-08-28T16:23:53.521Z,28.46
2022-08-28T16:26:20.581Z,28.46
2022-08-28T16:28:47.288Z,28.53
2022-08-28T16:31:20.456Z,28.69
2022-08-28T16:33:48.523Z,28.52
2022-08-28T16:36:15.901Z,28.60
2022-08-28T16:38:46.269Z,28.46
2022-08-28T16:41:18.649Z,28.29
2022-08-28T16:43:46.057Z,28.62
2022-08-28T16:46:16.942Z,28.67
2022-08-28T16:48:44.764Z,28.57
2022-08-28T16:51:12.295Z,28.41
2022-08-28T16:53:42.459Z,28.15
2022-08-28T16:56:14.667Z,28.44
2022-08-28T16:58:42.738Z,28.14
2022-08-28T17:01:10.702Z,28.09
2022-08-28T17:03:38.647Z,28.08
2022-08-28T17:06:15.753Z,27.95
2022-08-28T17:08:42.554Z,28.32
2022-08-28T17:11:10.304Z,28.22
2022-08-28T17:13:37.291Z,27.90
2022-08-28T17:16:04.847Z,28.08
2022-08-28T17:18:31.939Z,27.86
2022-08-28T17:21:17.038Z,27.88
2022-08-28T17:23:44.077Z,27.80
2022-08-28T17:26:10.703Z,27.74
2022-08-28T17:28:37.252Z,27.63
2022-08-28T17:31:03.854Z,27.60
2022-08-28T17:33:30.795Z,27.94
2022-08-28T17:35:59.754Z,27.84
2022-08-28T17:38:26.525Z,27.95
2022-08-28T17:40:53.343Z,28.06
2022-08-28T17:43:21.065Z,27.89
2022-08-28T17:45:48.260Z,27.70
2022-08-28T17:48:16.707Z,27.63
2022-08-28T17:50:46.121Z,27.62
2022-08-28T17:53:13.028Z,27.57
2022-08-28T17:55:39.663Z,27.67
2022-08-28T17:58:06.323Z,27.60
2022-08-28T18:00:33.431Z,27.51
2022-08-28T18:03:00.037Z,27.35
2022-08-28T18:05:26.680Z,27.28
2022-08-28T18:07:53.648Z,27.33
2022-08-28T18:10:21.623Z,27.27
2022-08-28T18:12:48.415Z,27.17
2022-08-28T18:15:15.244Z,27.07
2022-08-28T18:17:43.960Z,27.00
2022-08-28T18:20:11.897Z,27.01
2022-08-28T18:22:38.635Z,26.99
2022-08-28T18:25:06.288Z,26.93
2022-08-28T18:27:34.271Z,26.78
2022-08-28T18:30:01.652Z,26.79
2022-08-28T18:32:28.308Z,26.82
2022-08-28T18:34:54.776Z,26.71
2022-08-28T18:37:21.512Z,26.97
2022-08-28T18:39:48.031Z,26.78
2022-08-28T18:42:18.210Z,26.68
2022-08-28T18:44:44.747Z,26.58
2022-08-28T18:47:11.363Z,26.51
2022-08-28T18:49:37.944Z,26.61
2022-08-28T18:52:04.519Z,26.50
2022-08-28T18:54:31.291Z,26.49
2022-08-28T18:57:04.100Z,26.38
2022-08-28T18:59:32.580Z,26.53
2022-08-28T19:02:00.489Z,26.89
2022-08-28T19:04:27.221Z,26.60
2022-08-28T19:06:53.760Z,26.59
2022-08-28T19:09:20.872Z,26.59
2022-08-28T19:11:47.758Z,26.54
2022-08-28T19:14:14.276Z,26.37
2022-08-28T19:16:40.763Z,26.18
2022-08-28T19:19:08.214Z,26.06
2022-08-28T19:21:35.785Z,26.28
2022-08-28T19:24:02.780Z,26.17
2022-08-28T19:26:29.317Z,26.61
2022-08-28T19:28:56.013Z,26.45
2022-08-28T19:31:23.418Z,26.10
2022-08-28T19:33:51.282Z,25.90
2022-08-28T19:36:19.203Z,26.07
2022-08-28T19:38:45.814Z,25.87
2022-08-28T19:41:12.856Z,25.78
2022-08-28T19:43:43.282Z,25.85
2022-08-28T19:46:18.465Z,25.95
2022-08-28T19:48:51.392Z,26.14
2022-08-28T19:51:23.120Z,26.36
2022-08-28T19:53:58.268Z,26.57
2022-08-28T19:56:30.139Z,26.97
2022-08-28T19:58:59.098Z,27.20
2022-08-28T20:01:31.371Z,26.70
2022-08-28T20:03:59.651Z,27.31
2022-08-28T20:06:27.867Z,26.63
2022-08-28T20:08:54.715Z,26.49
2022-08-28T20:11:24.809Z,26.10
2022-08-28T20:13:56.740Z,25.92
2022-08-28T20:16:28.097Z,26.49
2022-08-28T20:18:55.713Z,26.66
2022-08-28T20:21:28.819Z,26.84
2022-08-28T20:24:04.239Z,26.68
2022-08-28T20:26:30.790Z,26.46
2022-08-28T20:28:57.311Z,26.39
2022-08-28T20:31:23.916Z,26.59
2022-08-28T20:33:50.903Z,26.16
2022-08-28T20:36:21.327Z,26.14
2022-08-28T20:38:48.010Z,25.85
2022-08-28T20:41:19.931Z,25.64
2022-08-28T20:43:48.370Z,25.76
2022-08-28T20:46:17.038Z,25.67
2022-08-28T20:48:44.537Z,25.60
2022-08-28T20:51:11.676Z,25.66
2022-08-28T20:53:38.632Z,25.57
2022-08-28T20:56:08.885Z,25.53
2022-08-28T20:58:36.212Z,25.65
2022-08-28T21:01:02.805Z,25.56
2022-08-28T21:03:29.368Z,26.06
2022-08-28T21:05:56.432Z,26.48
2022-08-28T21:08:22.962Z,25.72
2022-08-28T21:10:51.677Z,25.23
2022-08-28T21:13:18.399Z,25.14
2022-08-28T21:15:44.960Z,25.39
2022-08-28T21:18:11.493Z,25.52
2022-08-28T21:20:39.879Z,25.47
2022-08-28T21:23:07.060Z,25.24
2022-08-28T21:25:33.670Z,25.18
2022-08-28T21:28:04.185Z,25.26
2022-08-28T21:30:31.451Z,26.06
2022-08-28T21:32:58.029Z,25.81
2022-08-28T21:35:24.712Z,25.99
2022-08-28T21:37:51.249Z,25.68
2022-08-28T21:40:19.354Z,25.39
2022-08-28T21:42:45.939Z,25.30
2022-08-28T21:45:13.086Z,25.14
2022-08-28T21:47:41.076Z,25.22
2022-08-28T21:50:08.039Z,25.06
2022-08-28T21:52:34.981Z,25.05
2022-08-28T21:55:08.941Z,24.99
2022-08-28T21:57:35.643Z,25.07
2022-08-28T22:00:03.429Z,25.10
2022-08-28T22:02:30.002Z,25.00
2022-08-28T22:04:56.585Z,25.02
2022-08-28T22:07:23.229Z,24.96
2022-08-28T22:09:50.746Z,24.97
2022-08-28T22:12:17.796Z,24.97
2022-08-28T22:14:44.424Z,25.09
2022-08-28T22:17:11.949Z,24.89
2022-08-28T22:19:39.571Z,24.84
2022-08-28T22:22:24.984Z,24.89
2022-08-28T22:24:51.654Z,24.77
2022-08-28T22:27:18.164Z,24.81
2022-08-28T22:29:44.743Z,24.86
2022-08-28T22:32:11.431Z,24.78
2022-08-28T22:34:41.610Z,24.85
2022-08-28T22:37:11.510Z,24.86
2022-08-28T22:39:40.008Z,25.09
2022-08-28T22:42:07.151Z,25.11
2022-08-28T22:44:33.825Z,25.02
2022-08-28T22:47:00.414Z,24.75
2022-08-28T22:49:26.955Z,24.72
2022-08-28T22:51:53.530Z,24.87
2022-08-28T22:54:20.264Z,25.20
2022-08-28T22:56:46.876Z,25.14
2022-08-28T22:59:13.347Z,24.93
2022-08-28T23:01:42.445Z,24.70
2022-08-28T23:04:10.604Z,24.83
2022-08-28T23:06:40.902Z,24.72
2022-08-28T23:09:08.775Z,24.83
2022-08-28T23:11:36.484Z,24.87
2022-08-28T23:14:04.968Z,25.28
2022-08-28T23:16:31.596Z,24.95
2022-08-28T23:19:07.874Z,24.74
2022-08-28T23:21:35.647Z,24.77
2022-08-28T23:24:07.415Z,24.85
2022-08-28T23:26:34.252Z,24.79
2022-08-28T23:29:00.795Z,24.83
2022-08-28T23:31:27.794Z,25.03
2022-08-28T23:33:54.383Z,25.26
2022-08-28T23:36:22.476Z,25.43
2022-08-28T23:38:49.743Z,25.58
2022-08-28T23:41:18.712Z,25.05
2022-08-28T23:43:45.875Z,24.71
2022-08-28T23:46:16.917Z,24.50
2022-08-28T23:48:43.904Z,24.46
2022-08-28T23:51:13.827Z,24.51
2022-08-28T23:53:42.753Z,25.01
2022-08-28T23:56:09.739Z,25.70
2022-08-28T23:58:36.435Z,24.93
